createdAt,value
2023-05-19T00:01:19.887Z,101218.70
2023-05-19T00:03:52.178Z,101211.23
2023-05-19T00:06:23.651Z,101205.75
2023-05-19T00:08:56.240Z,101205.73
2023-05-19T00:11:23.456Z,101200.64
2023-05-19T00:13:50.809Z,101203.73
2023-05-19T00:16:18.024Z,101203.46
2023-05-19T00:18:45.010Z,101203.83
2023-05-19T00:21:11.770Z,101206.46
2023-05-19T00:23:38.420Z,101205.88
2023-05-19T00:26:05.220Z,101211.48
2023-05-19T00:28:31.966Z,101215.82
2023-05-19T00:30:58.907Z,101214.02
2023-05-19T00:33:25.958Z,101218.21
2023-05-19T00:35:53.057Z,101227.67
2023-05-19T00:38:19.912Z,101235.72
2023-05-19T00:40:47.001Z,101229.81
2023-05-19T00:43:13.837Z,101227.65
2023-05-19T00:45:40.887Z,101230.20
2023-05-19T00:48:07.906Z,101230.52
2023-05-19T00:50:35.067Z,101228.86
2023-05-19T00:53:02.147Z,101226.21
2023-05-19T00:55:31.117Z,101220.37
2023-05-19T00:57:58.416Z,101226.16
2023-05-19T01:00:25.221Z,101223.19
2023-05-19T01:02:53.872Z,101221.63
2023-05-19T01:05:20.643Z,101221.10
2023-05-19T01:07:51.475Z,101220.66
2023-05-19T01:10:18.628Z,101224.85
2023-05-19T01:12:46.115Z,101226.19
2023-05-19T01:15:13.476Z,101225.80
2023-05-19T01:17:44.435Z,101224.39
2023-05-19T01:20:11.420Z,101223.13
2023-05-19T01:22:42.669Z,101224.73
2023-05-19T01:25:29.079Z,101226.45
2023-05-19T01:28:04.279Z,101231.35
2023-05-19T01:30:36.891Z,101230.84
2023-05-19T01:33:06.744Z,101234.02
2023-05-19T01:35:35.791Z,101232.59
2023-05-19T01:38:03.359Z,101237.91
2023-05-19T01:40:32.056Z,101236.29
2023-05-19T01:43:01.139Z,101229.37
2023-05-19T01:45:29.202Z,101235.63
2023-05-19T01:47:57.443Z,101234.66
2023-05-19T01:50:24.941Z,101233.94
2023-05-19T01:52:51.892Z,101239.91
2023-05-19T01:55:18.929Z,101246.05
2023-05-19T01:57:45.669Z,101243.02
2023-05-19T02:00:19.361Z,101245.83
2023-05-19T02:02:51.259Z,101247.12
2023-05-19T02:05:37.122Z,101244.52
2023-05-19T02:08:10.008Z,101244.55
2023-05-19T02:10:40.546Z,101244.83
2023-05-19T02:13:10.962Z,101246.13
2023-05-19T02:15:39.869Z,101248.13
2023-05-19T02:18:08.737Z,101246.63
2023-05-19T02:20:35.599Z,101247.02
2023-05-19T02:23:02.429Z,101250.84
2023-05-19T02:25:29.605Z,101251.38
2023-05-19T02:27:57.361Z,101250.84
2023-05-19T02:30:24.685Z,101254.20
2023-05-19T02:32:53.736Z,101259.33
2023-05-19T02:35:20.891Z,101259.70
2023-05-19T02:37:47.676Z,101266.54
2023-05-19T02:40:15.033Z,101269.21
2023-05-19T02:42:41.882Z,101269.10
2023-05-19T02:45:09.537Z,101272.16
2023-05-19T02:47:37.819Z,101274.19
2023-05-19T02:50:05.778Z,101279.84
2023-05-19T02:52:32.834Z,101282.05
2023-05-19T02:55:00.175Z,101284.98
2023-05-19T02:57:26.917Z,101293.54
2023-05-19T02:59:53.659Z,101296.36
2023-05-19T03:02:22.606Z,101299.11
2023-05-19T03:04:50.320Z,101299.02
2023-05-19T03:07:17.255Z,101305.05
2023-05-19T03:09:43.998Z,101300.47
2023-05-19T03:12:10.738Z,101307.23
2023-05-19T03:14:38.090Z,101307.84
2023-05-19T03:17:08.467Z,101304.09
2023-05-19T03:19:36.310Z,101306.24
2023-05-19T03:22:03.326Z,101307.05
2023-05-19T03:24:30.280Z,101307.95
2023-05-19T03:26:57.124Z,101313.61
2023-05-19T03:29:24.060Z,101313.48
2023-05-19T03:31:51.685Z,101317.66
2023-05-19T03:34:18.565Z,101321.29
2023-05-19T03:36:45.609Z,101318.45
2023-05-19T03:39:15.635Z,101322.39
2023-05-19T03:41:42.706Z,101317.60
2023-05-19T03:44:09.522Z,101321.23
2023-05-19T03:46:37.285Z,101320.33
2023-05-19T03:49:23.175Z,101330.02
2023-05-19T03:52:25.345Z,101327.17
2023-05-19T03:55:07.448Z,101330.51
2023-05-19T03:57:34.207Z,101331.75
2023-05-19T04:00:00.889Z,101334.23
2023-05-19T04:02:27.831Z,101344.44
2023-05-19T04:04:55.806Z,101350.42
2023-05-19T04:07:23.193Z,101353.80
2023-05-19T04:09:50.453Z,101350.66
2023-05-19T04:12:17.387Z,101348.54
2023-05-19T04:14:45.464Z,101354.42
2023-05-19T04:17:12.409Z,101358.50
2023-05-19T04:19:39.857Z,101350.69
2023-05-19T04:22:06.723Z,101354.80
2023-05-19T04:24:33.389Z,101354.11
2023-05-19T04:27:02.112Z,101342.34
2023-05-19T04:29:29.072Z,101343.33
2023-05-19T04:31:57.038Z,101337.00
2023-05-19T04:34:24.418Z,101339.33
2023-05-19T04:36:53.241Z,101344.52
2023-05-19T04:39:21.180Z,101348.30
2023-05-19T04:41:48.095Z,101354.41
2023-05-19T04:44:17.603Z,101350.77
2023-05-19T04:46:46.837Z,101345.63
2023-05-19T04:49:14.152Z,101344.02
2023-05-19T04:51:42.123Z,101347.27
2023-05-19T04:54:09.581Z,101356.21
2023-05-19T04:56:36.418Z,101358.83
2023-05-19T04:59:04.389Z,101357.85
2023-05-19T05:01:33.416Z,101361.80
2023-05-19T05:04:02.242Z,101345.83
2023-05-19T05:06:31.154Z,101346.52
2023-05-19T05:08:58.102Z,101338.09
2023-05-19T05:11:25.865Z,101338.40
2023-05-19T05:13:53.771Z,101339.97
2023-05-19T05:16:20.824Z,101352.25
2023-05-19T05:18:48.183Z,101360.48
2023-05-19T05:21:15.797Z,101358.18
2023-05-19T05:23:43.025Z,101352.48
2023-05-19T05:26:16.446Z,101350.58
2023-05-19T05:28:43.287Z,101349.44
2023-05-19T05:31:11.253Z,101349.10
2023-05-19T05:33:39.046Z,101357.70
2023-05-19T05:36:06.166Z,101366.95
2023-05-19T05:38:33.828Z,101370.27
2023-05-19T05:41:02.308Z,101367.92
2023-05-19T05:43:29.559Z,101368.17
2023-05-19T05:46:01.937Z,101372.21
2023-05-19T05:48:30.014Z,101372.47
2023-05-19T05:50:58.901Z,101373.83
2023-05-19T05:53:29.832Z,101374.80
2023-05-19T05:55:58.025Z,101373.71
2023-05-19T05:58:28.538Z,101370.30
2023-05-19T06:00:57.436Z,101378.38
2023-05-19T06:03:26.608Z,101376.67
2023-05-19T06:05:53.910Z,101376.03
2023-05-19T06:08:20.824Z,101376.84
2023-05-19T06:10:47.608Z,101376.97
2023-05-19T06:13:18.400Z,101380.08
2023-05-19T06:15:48.608Z,101382.79
2023-05-19T06:18:20.687Z,101381.73
2023-05-19T06:20:48.349Z,101382.78
2023-05-19T06:23:15.294Z,101378.74
2023-05-19T06:25:42.248Z,101383.98
2023-05-19T06:28:10.545Z,101383.50
2023-05-19T06:30:37.665Z,101381.89
2023-05-19T06:33:16.901Z,101381.07
2023-05-19T06:35:43.845Z,101381.05
2023-05-19T06:38:10.717Z,101381.41
2023-05-19T06:40:37.733Z,101384.38
2023-05-19T06:43:04.577Z,101384.85
2023-05-19T06:45:41.753Z,101382.86
2023-05-19T06:48:08.871Z,101380.33
2023-05-19T06:50:36.681Z,101379.23
2023-05-19T06:53:03.515Z,101376.27
2023-05-19T06:55:31.634Z,101375.10
2023-05-19T06:57:58.361Z,101377.75
2023-05-19T07:00:25.478Z,101373.05
2023-05-19T07:02:52.807Z,101375.38
2023-05-19T07:05:20.585Z,101369.24
2023-05-19T07:07:51.016Z,101368.98
2023-05-19T07:10:21.640Z,101369.74
2023-05-19T07:12:48.486Z,101376.71
2023-05-19T07:15:15.942Z,101371.64
2023-05-19T07:17:43.957Z,101377.88
2023-05-19T07:20:10.979Z,101376.29
2023-05-19T07:22:39.344Z,101378.56
2023-05-19T07:25:07.311Z,101378.86
2023-05-19T07:27:34.253Z,101379.48
2023-05-19T07:30:01.092Z,101378.08
2023-05-19T07:32:27.881Z,101370.73
2023-05-19T07:34:54.674Z,101369.59
2023-05-19T07:37:21.520Z,101367.81
2023-05-19T07:39:48.359Z,101368.64
2023-05-19T07:42:15.106Z,101370.35
2023-05-19T07:44:41.943Z,101368.77
2023-05-19T07:47:08.797Z,101364.40
2023-05-19T07:49:35.521Z,101370.95
2023-05-19T07:52:02.463Z,101367.69
2023-05-19T07:54:29.416Z,101369.41
2023-05-19T07:56:56.356Z,101365.11
2023-05-19T07:59:23.929Z,101367.98
2023-05-19T08:01:50.684Z,101359.54
2023-05-19T08:04:17.379Z,101355.59
2023-05-19T08:06:44.563Z,101353.91
2023-05-19T08:09:11.597Z,101354.52
2023-05-19T08:11:38.452Z,101350.48
2023-05-19T08:14:05.272Z,101352.60
2023-05-19T08:16:31.984Z,101353.30
2023-05-19T08:19:02.080Z,101355.67
2023-05-19T08:21:28.949Z,101361.60
2023-05-19T08:23:56.639Z,101359.41
2023-05-19T08:26:23.384Z,101353.52
2023-05-19T08:28:50.120Z,101348.05
2023-05-19T08:31:17.849Z,101347.77
2023-05-19T08:33:45.345Z,101347.26
2023-05-19T08:36:11.974Z,101350.30
2023-05-19T08:38:38.645Z,101346.27
2023-05-19T08:41:05.467Z,101343.52
2023-05-19T08:43:32.223Z,101347.91
2023-05-19T08:46:00.277Z,101348.00
2023-05-19T08:48:33.187Z,101339.84
2023-05-19T08:51:18.531Z,101337.87
2023-05-19T08:53:49.626Z,101340.14
2023-05-19T08:56:19.530Z,101338.67
2023-05-19T08:58:48.478Z,101335.64
2023-05-19T09:01:18.203Z,101334.67
2023-05-19T09:03:45.831Z,101332.11
2023-05-19T09:06:12.899Z,101327.05
2023-05-19T09:08:40.536Z,101325.40
2023-05-19T09:11:08.273Z,101325.65
2023-05-19T09:13:35.011Z,101325.06
2023-05-19T09:16:02.715Z,101327.81
2023-05-19T09:18:29.626Z,101325.40
2023-05-19T09:21:01.839Z,101327.10
2023-05-19T09:23:30.119Z,101328.04
2023-05-19T09:25:57.057Z,101328.05
2023-05-19T09:28:25.548Z,101333.53
2023-05-19T09:31:02.210Z,101332.27
2023-05-19T09:33:29.260Z,101329.58
2023-05-19T09:35:56.568Z,101323.61
2023-05-19T09:38:24.045Z,101316.31
2023-05-19T09:40:51.716Z,101310.86
2023-05-19T09:43:18.771Z,101313.19
2023-05-19T09:45:45.839Z,101312.52
2023-05-19T09:48:14.141Z,101301.39
2023-05-19T09:50:42.170Z,101301.34
2023-05-19T09:53:12.182Z,101303.77
2023-05-19T09:55:40.497Z,101299.47
2023-05-19T09:58:07.298Z,101300.67
2023-05-19T10:00:34.488Z,101295.14
2023-05-19T10:03:04.281Z,101296.83
2023-05-19T10:05:32.746Z,101295.52
2023-05-19T10:08:00.133Z,101294.36
2023-05-19T10:10:26.893Z,101292.55
2023-05-19T10:12:54.088Z,101294.07
2023-05-19T10:15:23.145Z,101291.90
2023-05-19T10:17:50.995Z,101292.57
2023-05-19T10:20:18.358Z,101291.13
2023-05-19T10:22:45.772Z,101285.83
2023-05-19T10:25:17.946Z,101286.98
2023-05-19T10:27:49.577Z,101282.10
2023-05-19T10:30:26.696Z,101283.24
2023-05-19T10:32:56.920Z,101276.56
2023-05-19T10:35:31.940Z,101271.54
2023-05-19T10:38:14.614Z,101269.24
2023-05-19T10:40:50.383Z,101269.40
2023-05-19T10:43:35.875Z,101261.31
2023-05-19T10:46:03.932Z,101254.77
2023-05-19T10:48:33.036Z,101253.20
2023-05-19T10:50:59.771Z,101254.89
2023-05-19T10:53:31.029Z,101262.94
2023-05-19T10:56:02.178Z,101263.73
2023-05-19T10:58:44.157Z,101260.35
2023-05-19T11:01:14.053Z,101258.17
2023-05-19T11:03:45.442Z,101254.66
2023-05-19T11:06:18.353Z,101250.58
2023-05-19T11:08:45.152Z,101256.17
2023-05-19T11:11:18.942Z,101256.66
2023-05-19T11:13:52.194Z,101257.52
2023-05-19T11:16:20.448Z,101258.15
2023-05-19T11:18:48.256Z,101260.45
2023-05-19T11:21:15.808Z,101252.66
2023-05-19T11:23:43.551Z,101250.71
2023-05-19T11:26:10.353Z,101247.61
2023-05-19T11:28:37.298Z,101247.99
2023-05-19T11:31:07.488Z,101251.03
2023-05-19T11:33:34.359Z,101249.20
2023-05-19T11:36:02.269Z,101247.08
2023-05-19T11:38:29.658Z,101243.56
2023-05-19T11:40:56.540Z,101240.48
2023-05-19T11:43:24.287Z,101240.30
2023-05-19T11:45:51.293Z,101238.36
2023-05-19T11:48:20.286Z,101235.54
2023-05-19T11:50:47.015Z,101234.73
2023-05-19T11:53:14.582Z,101228.05
2023-05-19T11:55:43.055Z,101218.17
2023-05-19T11:58:09.801Z,101213.89
2023-05-19T12:00:38.718Z,101208.67
2023-05-19T12:03:05.980Z,101204.35
2023-05-19T12:05:39.108Z,101200.78
2023-05-19T12:08:08.312Z,101196.12
2023-05-19T12:10:35.339Z,101189.92
2023-05-19T12:13:02.875Z,101180.92
2023-05-19T12:15:31.069Z,101179.49
2023-05-19T12:17:59.881Z,101180.14
2023-05-19T12:20:28.264Z,101177.06
2023-05-19T12:22:55.364Z,101173.72
2023-05-19T12:25:22.427Z,101171.61
2023-05-19T12:27:49.578Z,101172.95
2023-05-19T12:30:16.614Z,101173.84
2023-05-19T12:32:43.779Z,101173.53
2023-05-19T12:35:11.214Z,101174.02
2023-05-19T12:37:40.969Z,101171.87
2023-05-19T12:40:10.436Z,101163.14
2023-05-19T12:42:37.279Z,101160.11
2023-05-19T12:45:04.381Z,101153.08
2023-05-19T12:47:32.942Z,101146.20
2023-05-19T12:49:59.842Z,101139.39
2023-05-19T12:52:28.552Z,101139.20
2023-05-19T12:55:06.477Z,101139.73
2023-05-19T12:57:34.608Z,101140.52
2023-05-19T13:00:06.370Z,101137.26
2023-05-19T13:02:34.091Z,101145.39
2023-05-19T13:05:00.949Z,101156.89
2023-05-19T13:07:27.796Z,101169.93
2023-05-19T13:09:54.476Z,101167.45
2023-05-19T13:12:21.093Z,101169.70
2023-05-19T13:14:47.720Z,101172.98
2023-05-19T13:17:14.395Z,101187.61
2023-05-19T13:19:41.665Z,101198.29
2023-05-19T13:22:08.455Z,101193.21
2023-05-19T13:24:35.441Z,101177.59
2023-05-19T13:27:02.862Z,101144.88
2023-05-19T13:29:29.498Z,101131.86
2023-05-19T13:31:56.181Z,101131.63
2023-05-19T13:34:22.876Z,101135.79
2023-05-19T13:36:49.749Z,101127.66
2023-05-19T13:39:17.899Z,101116.73
2023-05-19T13:41:44.637Z,101111.27
2023-05-19T13:44:11.309Z,101110.39
2023-05-19T13:49:10.791Z,101143.55
2023-05-19T13:51:39.166Z,101150.40
2023-05-19T13:54:05.915Z,101149.20
2023-05-19T13:56:32.853Z,101151.43
2023-05-19T13:58:59.593Z,101149.33
2023-05-19T14:01:26.324Z,101145.34
2023-05-19T14:03:53.330Z,101144.98
2023-05-19T14:06:20.227Z,101141.89
2023-05-19T14:08:47.067Z,101136.98
2023-05-19T14:11:19.135Z,101135.98
2023-05-19T14:13:47.802Z,101135.77
2023-05-19T14:16:14.683Z,101137.23
2023-05-19T14:18:41.853Z,101146.73
2023-05-19T14:21:08.755Z,101155.42
2023-05-19T14:23:35.589Z,101158.67
2023-05-19T14:26:02.450Z,101155.38
2023-05-19T14:28:29.480Z,101152.19
2023-05-19T14:30:56.322Z,101155.03
2023-05-19T14:33:23.265Z,101158.30
2023-05-19T14:35:50.105Z,101165.82
2023-05-19T14:38:16.851Z,101159.10
2023-05-19T14:40:44.103Z,101144.14
2023-05-19T14:43:11.290Z,101137.64
2023-05-19T14:45:38.400Z,101140.73
2023-05-19T14:48:05.439Z,101148.57
2023-05-19T14:50:32.485Z,101144.40
2023-05-19T14:52:59.645Z,101146.27
2023-05-19T14:55:26.380Z,101148.25
2023-05-19T14:57:53.231Z,101147.96
2023-05-19T15:00:20.376Z,101148.48
2023-05-19T15:02:48.883Z,101149.02
2023-05-19T15:05:15.902Z,101152.05
2023-05-19T15:07:42.758Z,101156.71
2023-05-19T15:10:09.594Z,101158.59
2023-05-19T15:12:36.645Z,101164.52
2023-05-19T15:15:03.579Z,101161.11
2023-05-19T15:17:30.869Z,101164.05
2023-05-19T15:19:57.676Z,101168.77
2023-05-19T15:22:24.513Z,101177.70
2023-05-19T15:24:51.256Z,101180.54
2023-05-19T15:27:17.997Z,101180.46
2023-05-19T15:29:44.736Z,101182.48
2023-05-19T15:32:11.689Z,101179.79
2023-05-19T15:34:38.629Z,101181.95
2023-05-19T15:37:05.469Z,101180.93
2023-05-19T15:39:33.275Z,101180.33
2023-05-19T15:42:00.174Z,101184.16
2023-05-19T15:44:28.941Z,101193.30
2023-05-19T15:46:56.055Z,101199.10
2023-05-19T15:49:24.518Z,101200.58
2023-05-19T15:51:51.335Z,101205.39
2023-05-19T15:54:18.285Z,101212.09
2023-05-19T15:56:45.117Z,101215.69
2023-05-19T15:59:11.865Z,101226.97
2023-05-19T16:01:38.655Z,101224.48
2023-05-19T16:04:06.180Z,101216.45
2023-05-19T16:06:33.121Z,101211.39
2023-05-19T16:08:59.952Z,101211.68
2023-05-19T16:11:26.895Z,101204.55
2023-05-19T16:13:54.064Z,101211.16
2023-05-19T16:16:21.341Z,101208.61
2023-05-19T16:18:48.304Z,101205.63
2023-05-19T16:21:15.304Z,101206.62
2023-05-19T16:23:42.133Z,101202.48
2023-05-19T16:26:08.882Z,101199.19
2023-05-19T16:28:35.829Z,101191.54
2023-05-19T16:31:02.767Z,101193.47
2023-05-19T16:33:30.170Z,101195.31
2023-05-19T16:35:57.782Z,101196.65
2023-05-19T16:38:24.619Z,101202.50
2023-05-19T16:40:51.581Z,101199.08
2023-05-19T16:43:18.307Z,101205.80
2023-05-19T16:45:45.166Z,101202.48
2023-05-19T16:48:12.135Z,101200.35
2023-05-19T16:50:39.377Z,101193.50
2023-05-19T16:53:06.391Z,101196.27
2023-05-19T16:55:33.233Z,101207.42
2023-05-19T16:57:59.970Z,101208.22
2023-05-19T17:00:28.965Z,101203.35
2023-05-19T17:02:55.890Z,101200.84
2023-05-19T17:05:22.855Z,101203.55
2023-05-19T17:07:49.691Z,101210.41
2023-05-19T17:10:17.048Z,101211.88
2023-05-19T17:12:43.892Z,101210.88
2023-05-19T17:15:11.045Z,101217.52
2023-05-19T17:17:38.056Z,101212.85
2023-05-19T17:20:05.473Z,101212.95
2023-05-19T17:22:32.278Z,101215.77
2023-05-19T17:24:59.025Z,101213.38
2023-05-19T17:27:25.770Z,101217.88
2023-05-19T17:29:52.773Z,101210.50
2023-05-19T17:32:25.040Z,101210.52
2023-05-19T17:34:52.123Z,101217.94
2023-05-19T17:37:22.956Z,101225.58
2023-05-19T17:39:52.612Z,101230.43
2023-05-19T17:42:19.815Z,101230.98
2023-05-19T17:44:46.882Z,101227.23
2023-05-19T17:47:13.715Z,101227.83
2023-05-19T17:49:40.956Z,101224.33
2023-05-19T17:52:08.117Z,101225.55
2023-05-19T17:54:35.270Z,101227.00
2023-05-19T17:57:04.513Z,101230.14
2023-05-19T17:59:31.606Z,101230.82
2023-05-19T18:01:58.696Z,101239.02
2023-05-19T18:04:25.900Z,101269.08
2023-05-19T18:06:53.155Z,101359.16
2023-05-19T18:09:22.760Z,101358.33
2023-05-19T18:11:49.707Z,101380.84
2023-05-19T18:14:16.553Z,101372.83
2023-05-19T18:16:43.492Z,101367.15
2023-05-19T18:19:10.920Z,101369.41
2023-05-19T18:21:37.656Z,101365.69
2023-05-19T18:24:04.886Z,101370.56
2023-05-19T18:26:32.607Z,101363.80
2023-05-19T18:29:02.282Z,101339.77
2023-05-19T18:31:29.060Z,101352.60
2023-05-19T18:33:55.787Z,101362.40
2023-05-19T18:36:23.045Z,101349.09
2023-05-19T18:38:49.790Z,101332.38
2023-05-19T18:41:16.429Z,101324.08
2023-05-19T18:43:43.313Z,101312.30
2023-05-19T18:46:12.946Z,101300.77
2023-05-19T18:48:40.121Z,101297.65
2023-05-19T18:51:07.478Z,101296.77
2023-05-19T18:53:34.662Z,101291.73
2023-05-19T18:56:05.161Z,101288.09
2023-05-19T18:58:32.201Z,101284.79
2023-05-19T19:00:59.096Z,101296.55
2023-05-19T19:03:26.241Z,101298.39
2023-05-19T19:05:54.791Z,101295.50
2023-05-19T19:08:21.823Z,101295.44
2023-05-19T19:10:49.997Z,101294.56
2023-05-19T19:13:17.562Z,101297.98
2023-05-19T19:15:44.812Z,101297.14
2023-05-19T19:18:11.782Z,101300.69
2023-05-19T19:20:38.441Z,101300.86
2023-05-19T19:23:06.208Z,101302.34
2023-05-19T19:25:33.245Z,101304.23
2023-05-19T19:28:00.904Z,101306.31
2023-05-19T19:30:28.728Z,101308.48
2023-05-19T19:32:56.525Z,101304.09
2023-05-19T19:35:23.436Z,101300.88
2023-05-19T19:37:51.408Z,101302.33
2023-05-19T19:40:18.265Z,101304.33
2023-05-19T19:42:45.210Z,101305.44
2023-05-19T19:45:14.043Z,101299.77
2023-05-19T19:47:42.890Z,101302.04
2023-05-19T19:50:10.355Z,101302.94
2023-05-19T19:52:37.473Z,101305.48
2023-05-19T19:55:04.632Z,101312.12
2023-05-19T19:57:33.618Z,101315.96
2023-05-19T20:00:07.432Z,101321.94
2023-05-19T20:02:41.086Z,101325.81
2023-05-19T20:05:13.237Z,101331.54
2023-05-19T20:07:40.033Z,101331.05
2023-05-19T20:10:07.193Z,101329.75
2023-05-19T20:12:34.028Z,101331.02
2023-05-19T20:15:01.054Z,101327.63
2023-05-19T20:17:27.851Z,101331.77
2023-05-19T20:19:56.404Z,101324.80
2023-05-19T20:22:23.252Z,101320.11
2023-05-19T20:24:50.110Z,101324.52
2023-05-19T20:27:17.025Z,101326.69
2023-05-19T20:29:45.099Z,101330.52
2023-05-19T20:32:12.455Z,101328.98
2023-05-19T20:34:40.702Z,101320.58
2023-05-19T20:37:08.007Z,101319.45
2023-05-19T20:39:34.911Z,101320.10
2023-05-19T20:42:01.663Z,101316.66
2023-05-19T20:44:28.408Z,101318.50
2023-05-19T20:46:55.241Z,101321.52
2023-05-19T20:49:21.909Z,101324.48
2023-05-19T20:51:48.626Z,101325.41
2023-05-19T20:54:16.317Z,101319.96
2023-05-19T20:56:42.912Z,101317.66
2023-05-19T20:59:09.766Z,101319.80
2023-05-19T21:01:36.937Z,101318.79
2023-05-19T21:04:06.421Z,101324.14
2023-05-19T21:06:33.634Z,101324.52
2023-05-19T21:09:03.382Z,101322.66
2023-05-19T21:11:30.741Z,101324.98
2023-05-19T21:13:57.682Z,101328.39
2023-05-19T21:16:24.641Z,101332.89
2023-05-19T21:18:51.591Z,101327.44
2023-05-19T21:21:18.412Z,101330.14
2023-05-19T21:23:45.155Z,101333.45
2023-05-19T21:26:11.895Z,101333.01
2023-05-19T21:28:38.742Z,101326.20
2023-05-19T21:31:05.649Z,101321.65
2023-05-19T21:33:32.633Z,101323.73
2023-05-19T21:35:59.982Z,101328.12
2023-05-19T21:38:27.130Z,101325.05
2023-05-19T21:40:53.881Z,101331.50
2023-05-19T21:43:21.450Z,101330.48
2023-05-19T21:45:48.156Z,101328.98
2023-05-19T21:48:15.131Z,101321.10
2023-05-19T21:50:42.168Z,101333.59
2023-05-19T21:53:09.316Z,101328.27
2023-05-19T21:55:36.056Z,101323.39
2023-05-19T21:58:03.001Z,101326.50
2023-05-19T22:00:29.944Z,101328.38
2023-05-19T22:02:56.773Z,101327.05
2023-05-19T22:05:23.823Z,101318.63
2023-05-19T22:07:50.666Z,101321.58
2023-05-19T22:10:17.613Z,101319.73
2023-05-19T22:12:44.455Z,101316.91
2023-05-19T22:15:12.852Z,101313.06
2023-05-19T22:17:39.821Z,101317.29
2023-05-19T22:20:07.648Z,101317.20
2023-05-19T22:22:34.635Z,101318.41
2023-05-19T22:25:02.347Z,101317.73
2023-05-19T22:27:29.297Z,101322.34
2023-05-19T22:29:56.246Z,101320.67
2023-05-19T22:32:23.082Z,101318.48
2023-05-19T22:34:50.005Z,101320.75
2023-05-19T22:37:16.768Z,101323.25
2023-05-19T22:39:43.915Z,101323.73
2023-05-19T22:42:10.650Z,101328.52
2023-05-19T22:44:37.390Z,101336.87
2023-05-19T22:47:04.284Z,101325.70
2023-05-19T22:49:30.987Z,101326.94
2023-05-19T22:51:57.817Z,101329.89
2023-05-19T22:54:24.663Z,101325.30
2023-05-19T22:56:51.541Z,101323.46
2023-05-19T22:59:18.549Z,101321.50
2023-05-19T23:01:46.130Z,101317.97
2023-05-19T23:04:13.598Z,101319.16
2023-05-19T23:06:40.610Z,101311.98
2023-05-19T23:09:07.695Z,101317.67
2023-05-19T23:11:35.421Z,101313.58
2023-05-19T23:14:02.481Z,101315.52
2023-05-19T23:16:29.327Z,101318.17
2023-05-19T23:18:56.068Z,101328.23
2023-05-19T23:21:22.890Z,101331.58
2023-05-19T23:23:49.631Z,101331.89
2023-05-19T23:26:16.373Z,101332.61
2023-05-19T23:28:43.258Z,101325.10
2023-05-19T23:31:10.070Z,101326.42
2023-05-19T23:33:36.906Z,101324.25
2023-05-19T23:36:07.762Z,101320.55
2023-05-19T23:38:35.195Z,101316.25
2023-05-19T23:41:02.245Z,101315.59
2023-05-19T23:43:29.239Z,101312.37
2023-05-19T23:45:56.046Z,101311.36
2023-05-19T23:48:22.875Z,101315.26
2023-05-19T23:50:49.616Z,101315.58
2023-05-19T23:53:16.762Z,101316.35
2023-05-19T23:55:44.172Z,101315.14
2023-05-19T23:58:10.859Z,101321.96
